createdAt,value
2022-07-26T00:01:59.041Z,22.48
2022-07-26T00:04:28.405Z,22.44
2022-07-26T00:06:56.327Z,22.43
2022-07-26T00:09:24.266Z,22.42
2022-07-26T00:11:52.237Z,22.41
2022-07-26T00:14:20.207Z,22.41
2022-07-26T00:16:48.268Z,22.41
2022-07-26T00:19:16.270Z,22.42
2022-07-26T00:21:45.709Z,22.40
2022-07-26T00:24:13.628Z,22.36
2022-07-26T00:26:41.708Z,22.34
2022-07-26T00:29:09.837Z,22.27
2022-07-26T00:31:37.950Z,22.24
2022-07-26T00:34:05.919Z,22.17
2022-07-26T00:36:34.233Z,22.14
2022-07-26T00:39:05.694Z,21.99
2022-07-26T00:41:33.776Z,22.06
2022-07-26T00:44:01.790Z,22.03
2022-07-26T00:46:29.823Z,22.00
2022-07-26T00:48:57.884Z,22.01
2022-07-26T00:51:25.949Z,21.97
2022-07-26T00:53:54.079Z,21.92
2022-07-26T00:56:23.408Z,21.87
2022-07-26T00:58:51.342Z,21.80
2022-07-26T01:01:19.316Z,21.75
2022-07-26T01:03:47.235Z,21.72
2022-07-26T01:06:15.158Z,21.70
2022-07-26T01:08:43.128Z,21.69
2022-07-26T01:11:11.117Z,21.70
2022-07-26T01:13:46.688Z,21.68
2022-07-26T01:16:14.598Z,21.65
2022-07-26T01:18:42.651Z,21.60
2022-07-26T01:21:13.680Z,21.61
2022-07-26T01:23:43.662Z,21.62
2022-07-26T01:26:11.703Z,21.58
2022-07-26T01:28:41.082Z,21.50
2022-07-26T01:31:09.321Z,21.42
2022-07-26T01:33:37.350Z,21.34
2022-07-26T01:36:05.655Z,21.28
2022-07-26T01:38:33.620Z,21.26
2022-07-26T01:41:03.003Z,21.22
2022-07-26T01:43:30.990Z,21.18
2022-07-26T01:45:59.145Z,21.14
2022-07-26T01:48:27.148Z,21.12
2022-07-26T01:50:55.178Z,21.10
2022-07-26T01:53:23.164Z,21.04
2022-07-26T01:55:51.115Z,20.94
2022-07-26T01:58:20.508Z,20.91
2022-07-26T02:00:48.587Z,20.88
2022-07-26T02:03:16.590Z,20.84
2022-07-26T02:05:44.537Z,20.80
2022-07-26T02:08:12.541Z,20.73
2022-07-26T02:10:58.053Z,20.66
2022-07-26T02:13:27.894Z,20.55
2022-07-26T02:15:55.898Z,20.55
2022-07-26T02:18:23.906Z,20.57
2022-07-26T02:20:51.833Z,20.57
2022-07-26T02:23:19.816Z,20.56
2022-07-26T02:25:47.791Z,20.54
2022-07-26T02:28:15.859Z,20.54
2022-07-26T02:30:45.265Z,20.53
2022-07-26T02:33:13.335Z,20.52
2022-07-26T02:35:41.286Z,20.54
2022-07-26T02:38:10.697Z,20.53
2022-07-26T02:40:38.911Z,20.53
2022-07-26T02:43:07.492Z,20.53
2022-07-26T02:45:35.489Z,20.53
2022-07-26T02:48:05.080Z,20.54
2022-07-26T02:50:33.317Z,20.34
2022-07-26T02:53:01.280Z,20.52
2022-07-26T02:55:29.208Z,20.65
2022-07-26T02:57:57.304Z,20.71
2022-07-26T03:00:26.163Z,20.76
2022-07-26T03:02:54.169Z,20.81
2022-07-26T03:05:23.557Z,20.87
2022-07-26T03:07:51.610Z,20.92
2022-07-26T03:10:19.575Z,20.93
2022-07-26T03:12:47.539Z,20.92
2022-07-26T03:15:15.569Z,20.92
2022-07-26T03:17:43.529Z,20.97
2022-07-26T03:20:13.169Z,21.05
2022-07-26T03:22:42.631Z,21.07
2022-07-26T03:25:10.621Z,21.06
2022-07-26T03:27:38.623Z,21.10
2022-07-26T03:30:07.465Z,21.13
2022-07-26T03:32:35.449Z,21.13
2022-07-26T03:35:03.446Z,21.14
2022-07-26T03:37:45.524Z,21.14
2022-07-26T03:40:16.292Z,21.15
2022-07-26T03:42:44.501Z,21.18
2022-07-26T03:45:13.455Z,21.15
2022-07-26T03:47:41.373Z,21.14
2022-07-26T03:50:10.980Z,21.13
2022-07-26T03:52:38.982Z,21.14
2022-07-26T03:55:27.566Z,21.20
2022-07-26T03:57:56.032Z,21.22
2022-07-26T04:00:23.962Z,21.25
2022-07-26T04:02:51.931Z,21.28
2022-07-26T04:05:23.376Z,21.29
2022-07-26T04:07:53.084Z,21.31
2022-07-26T04:10:21.818Z,21.34
2022-07-26T04:12:49.834Z,21.36
2022-07-26T04:15:21.019Z,21.38
2022-07-26T04:17:49.293Z,21.40
2022-07-26T04:20:17.254Z,21.41
2022-07-26T04:22:45.239Z,21.42
2022-07-26T04:25:13.265Z,21.44
2022-07-26T04:27:41.162Z,21.42
2022-07-26T04:30:14.804Z,21.39
2022-07-26T04:32:45.865Z,21.38
2022-07-26T04:35:15.081Z,21.38
2022-07-26T04:37:43.619Z,21.38
2022-07-26T04:40:28.478Z,21.36
2022-07-26T04:42:57.513Z,21.36
2022-07-26T04:45:26.016Z,21.32
2022-07-26T04:47:55.709Z,21.29
2022-07-26T04:50:23.912Z,21.27
2022-07-26T04:52:52.312Z,21.28
2022-07-26T04:55:20.638Z,21.26
2022-07-26T04:57:51.467Z,21.23
2022-07-26T05:00:24.318Z,21.25
2022-07-26T05:02:57.294Z,21.29
2022-07-26T05:05:30.777Z,21.33
2022-07-26T05:08:03.209Z,21.34
2022-07-26T05:10:33.834Z,21.36
2022-07-26T05:13:02.731Z,21.36
2022-07-26T05:15:35.363Z,21.39
2022-07-26T05:18:07.084Z,21.33
2022-07-26T05:20:37.595Z,21.43
2022-07-26T05:23:05.758Z,21.43
2022-07-26T05:25:36.451Z,21.45
2022-07-26T05:28:04.495Z,21.40
2022-07-26T05:30:32.801Z,21.42
2022-07-26T05:33:00.868Z,21.38
2022-07-26T05:35:28.924Z,21.39
2022-07-26T05:38:00.554Z,21.42
2022-07-26T05:40:28.586Z,21.50
2022-07-26T05:42:56.570Z,21.56
2022-07-26T05:45:24.503Z,21.56
2022-07-26T05:47:52.491Z,21.59
2022-07-26T05:50:20.663Z,21.66
2022-07-26T05:52:48.838Z,21.72
2022-07-26T05:55:18.553Z,21.71
2022-07-26T05:57:49.575Z,21.83
2022-07-26T06:00:21.024Z,21.88
2022-07-26T06:02:49.202Z,21.93
2022-07-26T06:05:17.611Z,21.92
2022-07-26T06:07:48.114Z,22.04
2022-07-26T06:10:16.167Z,22.09
2022-07-26T06:12:45.786Z,22.14
2022-07-26T06:15:16.087Z,22.22
2022-07-26T06:17:44.221Z,22.24
2022-07-26T06:20:13.214Z,22.20
2022-07-26T06:22:41.365Z,22.19
2022-07-26T06:25:12.599Z,22.24
2022-07-26T06:27:41.170Z,22.30
2022-07-26T06:30:11.933Z,22.35
2022-07-26T06:32:41.264Z,22.34
2022-07-26T06:35:09.413Z,22.35
2022-07-26T06:37:38.089Z,22.34
2022-07-26T06:40:10.669Z,22.43
2022-07-26T06:42:44.831Z,22.43
2022-07-26T06:45:14.204Z,22.63
2022-07-26T06:47:42.255Z,22.73
2022-07-26T06:50:10.879Z,22.81
2022-07-26T06:52:41.980Z,22.92
2022-07-26T06:55:15.963Z,22.98
2022-07-26T06:57:48.847Z,22.98
2022-07-26T07:00:19.870Z,23.09
2022-07-26T07:02:47.812Z,23.23
2022-07-26T07:05:16.165Z,23.46
2022-07-26T07:07:44.144Z,23.59
2022-07-26T07:10:12.696Z,23.53
2022-07-26T07:12:41.821Z,23.46
2022-07-26T07:15:10.515Z,23.26
2022-07-26T07:17:40.049Z,23.47
2022-07-26T07:20:08.441Z,23.54
2022-07-26T07:22:36.351Z,23.60
2022-07-26T07:25:06.204Z,23.71
2022-07-26T07:27:34.421Z,23.76
2022-07-26T07:30:02.465Z,23.77
2022-07-26T07:32:32.231Z,23.85
2022-07-26T07:35:01.789Z,23.89
2022-07-26T07:37:52.368Z,23.88
2022-07-26T07:40:18.001Z,23.84
2022-07-26T07:42:45.968Z,23.75
2022-07-26T07:45:13.905Z,23.68
2022-07-26T07:47:41.881Z,23.71
2022-07-26T07:50:14.541Z,23.77
2022-07-26T07:52:42.682Z,23.85
2022-07-26T07:55:40.040Z,23.84
2022-07-26T07:58:01.536Z,23.90
2022-07-26T08:00:33.432Z,23.80
2022-07-26T08:03:01.602Z,23.79
2022-07-26T08:05:30.974Z,23.68
2022-07-26T08:07:58.928Z,23.63
2022-07-26T08:10:26.976Z,23.51
2022-07-26T08:12:54.931Z,23.37
2022-07-26T08:15:23.529Z,23.33
2022-07-26T08:17:54.564Z,23.37
2022-07-26T08:20:22.942Z,23.39
2022-07-26T08:22:54.471Z,23.36
2022-07-26T08:25:22.640Z,23.35
2022-07-26T08:28:03.233Z,23.41
2022-07-26T08:30:31.809Z,23.43
2022-07-26T08:32:59.826Z,23.61
2022-07-26T08:35:29.536Z,23.80
2022-07-26T08:37:59.041Z,23.95
2022-07-26T08:40:27.097Z,24.04
2022-07-26T08:42:56.089Z,24.08
2022-07-26T08:45:24.672Z,24.18
2022-07-26T08:48:16.220Z,24.32
2022-07-26T08:50:41.273Z,24.43
2022-07-26T08:53:12.034Z,24.62
2022-07-26T08:56:05.510Z,24.77
2022-07-26T08:58:28.361Z,24.70
2022-07-26T09:01:05.497Z,24.66
2022-07-26T09:03:33.615Z,24.60
2022-07-26T09:06:12.855Z,24.49
2022-07-26T09:08:42.201Z,24.55
2022-07-26T09:11:34.248Z,24.67
2022-07-26T09:14:02.872Z,24.57
2022-07-26T09:16:32.548Z,24.56
2022-07-26T09:19:16.853Z,24.56
2022-07-26T09:21:44.836Z,24.70
2022-07-26T09:24:14.366Z,24.87
2022-07-26T09:26:42.444Z,25.06
2022-07-26T09:29:11.625Z,25.17
2022-07-26T09:31:40.209Z,25.20
2022-07-26T09:34:08.851Z,25.27
2022-07-26T09:36:51.108Z,25.41
2022-07-26T09:39:33.588Z,25.49
2022-07-26T09:42:27.394Z,25.50
2022-07-26T09:44:56.576Z,25.64
2022-07-26T09:47:24.771Z,25.61
2022-07-26T09:50:11.667Z,25.36
2022-07-26T09:52:39.877Z,25.11
2022-07-26T09:55:10.963Z,24.88
2022-07-26T09:57:39.071Z,24.82
2022-07-26T10:00:08.405Z,24.92
2022-07-26T10:02:36.434Z,25.12
2022-07-26T10:05:04.546Z,25.30
2022-07-26T10:07:32.697Z,25.41
2022-07-26T10:10:02.418Z,25.60
2022-07-26T10:12:33.217Z,25.76
2022-07-26T10:15:01.189Z,25.85
2022-07-26T10:17:47.026Z,26.03
2022-07-26T10:20:42.152Z,26.00
2022-07-26T10:23:37.435Z,25.86
2022-07-26T10:26:06.276Z,25.84
2022-07-26T10:28:36.661Z,25.92
2022-07-26T10:31:30.831Z,26.15
2022-07-26T10:34:00.255Z,26.27
2022-07-26T10:36:33.693Z,26.46
2022-07-26T10:39:09.842Z,26.48
2022-07-26T10:41:39.714Z,26.52
2022-07-26T10:44:20.365Z,26.56
2022-07-26T10:47:18.868Z,26.50
2022-07-26T10:49:57.225Z,26.49
2022-07-26T10:52:27.264Z,26.50
2022-07-26T10:55:17.354Z,26.57
2022-07-26T10:57:49.470Z,26.52
2022-07-26T11:00:21.126Z,26.64
2022-07-26T11:02:59.493Z,26.80
2022-07-26T11:05:31.192Z,26.96
2022-07-26T11:08:11.722Z,27.13
2022-07-26T11:10:40.364Z,27.20
2022-07-26T11:13:10.668Z,27.25
2022-07-26T11:15:41.088Z,27.31
2022-07-26T11:18:14.210Z,27.52
2022-07-26T11:20:42.618Z,27.66
2022-07-26T11:23:37.914Z,27.73
2022-07-26T11:26:13.690Z,27.73
2022-07-26T11:28:49.016Z,27.56
2022-07-26T11:31:21.255Z,27.64
2022-07-26T11:33:51.381Z,27.66
2022-07-26T11:36:20.357Z,27.74
2022-07-26T11:38:49.835Z,27.82
2022-07-26T11:41:32.630Z,27.89
2022-07-26T11:44:12.733Z,27.77
2022-07-26T11:46:47.945Z,27.63
2022-07-26T11:49:17.094Z,27.81
2022-07-26T11:52:06.519Z,28.10
2022-07-26T11:54:35.529Z,28.41
2022-07-26T11:57:04.382Z,28.61
2022-07-26T11:59:33.134Z,28.79
2022-07-26T12:02:03.328Z,28.86
2022-07-26T12:05:12.062Z,28.89
2022-07-26T12:07:40.140Z,28.85
2022-07-26T12:10:09.133Z,28.88
2022-07-26T12:12:37.124Z,29.06
2022-07-26T12:15:07.066Z,29.07
2022-07-26T12:17:36.652Z,28.85
2022-07-26T12:20:14.647Z,28.60
2022-07-26T12:22:42.747Z,28.74
2022-07-26T12:25:11.030Z,28.91
2022-07-26T12:27:46.458Z,29.12
2022-07-26T12:30:17.709Z,29.32
2022-07-26T12:32:48.565Z,29.41
2022-07-26T12:35:17.533Z,29.50
2022-07-26T12:37:51.365Z,29.64
2022-07-26T12:40:20.855Z,29.66
2022-07-26T12:43:00.784Z,29.38
2022-07-26T12:45:30.093Z,29.26
2022-07-26T12:48:00.313Z,29.47
2022-07-26T12:50:29.013Z,29.78
2022-07-26T12:53:00.950Z,30.20
2022-07-26T12:55:28.945Z,30.17
2022-07-26T12:57:57.169Z,30.55
2022-07-26T13:00:25.668Z,30.90
2022-07-26T13:03:04.594Z,31.18
2022-07-26T13:05:35.026Z,31.26
2022-07-26T13:08:03.063Z,31.34
2022-07-26T13:10:33.580Z,31.53
2022-07-26T13:13:02.883Z,31.72
2022-07-26T13:15:36.248Z,31.67
2022-07-26T13:18:07.237Z,31.59
2022-07-26T13:20:38.075Z,31.21
2022-07-26T13:23:06.076Z,30.96
2022-07-26T13:25:38.462Z,30.91
2022-07-26T13:28:08.532Z,30.98
2022-07-26T13:30:37.726Z,31.21
2022-07-26T13:33:05.850Z,31.03
2022-07-26T13:35:33.806Z,30.80
2022-07-26T13:38:03.757Z,30.55
2022-07-26T13:40:32.242Z,30.22
2022-07-26T13:43:00.366Z,30.18
2022-07-26T13:45:29.370Z,30.49
2022-07-26T13:47:58.788Z,30.79
2022-07-26T13:50:27.538Z,31.03
2022-07-26T13:52:55.703Z,30.99
2022-07-26T13:55:25.484Z,30.81
2022-07-26T13:57:56.975Z,30.67
2022-07-26T14:00:25.413Z,30.61
2022-07-26T14:02:53.474Z,30.54
2022-07-26T14:05:21.703Z,30.63
2022-07-26T14:07:49.702Z,30.78
2022-07-26T14:10:18.211Z,30.94
2022-07-26T14:12:47.942Z,30.85
2022-07-26T14:15:21.703Z,31.19
2022-07-26T14:17:51.144Z,31.78
2022-07-26T14:20:19.137Z,32.33
2022-07-26T14:22:48.054Z,32.57
2022-07-26T14:25:16.045Z,32.66
2022-07-26T14:27:44.028Z,32.41
2022-07-26T14:30:14.683Z,32.23
2022-07-26T14:32:42.602Z,31.75
2022-07-26T14:35:11.071Z,31.40
2022-07-26T14:37:42.607Z,31.05
2022-07-26T14:40:15.305Z,30.55
2022-07-26T14:42:43.365Z,30.18
2022-07-26T14:45:13.118Z,30.26
2022-07-26T14:47:41.161Z,30.38
2022-07-26T14:50:09.789Z,30.36
2022-07-26T14:52:38.671Z,30.23
2022-07-26T14:55:07.629Z,30.03
2022-07-26T14:57:39.029Z,29.99
2022-07-26T15:00:09.089Z,29.81
2022-07-26T15:02:39.554Z,29.59
2022-07-26T15:05:08.014Z,29.39
2022-07-26T15:07:36.027Z,29.09
2022-07-26T15:10:04.128Z,28.92
2022-07-26T15:12:32.166Z,28.92
2022-07-26T15:15:00.169Z,28.89
2022-07-26T15:17:28.123Z,29.23
2022-07-26T15:19:57.475Z,29.30
2022-07-26T15:22:25.476Z,29.26
2022-07-26T15:24:53.492Z,29.34
2022-07-26T15:27:21.670Z,29.35
2022-07-26T15:29:50.755Z,29.37
2022-07-26T15:32:18.778Z,29.63
2022-07-26T15:34:46.946Z,29.97
2022-07-26T15:37:16.309Z,30.60
2022-07-26T15:39:44.455Z,31.21
2022-07-26T15:42:12.368Z,31.88
2022-07-26T15:44:43.238Z,32.52
2022-07-26T15:47:12.062Z,32.85
2022-07-26T15:49:40.686Z,33.12
2022-07-26T15:52:09.271Z,33.49
2022-07-26T15:54:39.038Z,33.90
2022-07-26T15:57:06.996Z,34.03
2022-07-26T15:59:34.975Z,34.02
2022-07-26T16:02:06.218Z,34.18
2022-07-26T16:04:34.619Z,34.45
2022-07-26T16:07:02.613Z,34.74
2022-07-26T16:09:30.858Z,34.98
2022-07-26T16:12:04.122Z,34.93
2022-07-26T16:14:34.089Z,35.06
2022-07-26T16:17:02.023Z,34.94
2022-07-26T16:19:30.208Z,34.81
2022-07-26T16:21:58.163Z,34.76
2022-07-26T16:24:26.685Z,34.89
2022-07-26T16:26:54.663Z,34.98
2022-07-26T16:29:24.106Z,34.97
2022-07-26T16:31:54.529Z,35.02
2022-07-26T16:34:22.549Z,35.14
2022-07-26T16:36:50.983Z,35.07
2022-07-26T16:39:19.030Z,35.10
2022-07-26T16:41:47.222Z,35.22
2022-07-26T16:44:15.193Z,35.29
2022-07-26T16:46:44.859Z,35.42
2022-07-26T16:49:13.195Z,35.71
2022-07-26T16:51:41.509Z,35.72
2022-07-26T16:54:09.530Z,35.65
2022-07-26T16:56:37.514Z,35.77
2022-07-26T16:59:10.651Z,35.92
2022-07-26T17:01:38.933Z,35.90
2022-07-26T17:04:08.406Z,35.83
2022-07-26T17:06:36.678Z,36.10
2022-07-26T17:09:04.782Z,36.28
2022-07-26T17:11:34.498Z,36.34
2022-07-26T17:14:02.473Z,36.57
2022-07-26T17:16:30.802Z,36.69
2022-07-26T17:18:58.799Z,36.50
2022-07-26T17:21:32.370Z,36.40
2022-07-26T17:24:05.178Z,36.34
2022-07-26T17:26:33.596Z,35.95
2022-07-26T17:29:09.492Z,35.62
2022-07-26T17:31:37.713Z,35.62
2022-07-26T17:34:05.725Z,35.59
2022-07-26T17:36:35.854Z,35.38
2022-07-26T17:39:05.265Z,35.27
2022-07-26T17:41:33.717Z,34.77
2022-07-26T17:44:02.953Z,33.75
2022-07-26T17:46:32.593Z,32.35
2022-07-26T17:49:00.835Z,31.05
2022-07-26T17:51:30.250Z,30.01
2022-07-26T17:53:59.606Z,29.33
2022-07-26T17:56:27.932Z,28.64
2022-07-26T17:58:55.904Z,28.09
2022-07-26T18:01:26.587Z,27.60
2022-07-26T18:03:54.660Z,27.24
2022-07-26T18:06:22.711Z,27.00
2022-07-26T18:08:50.634Z,26.86
2022-07-26T18:11:19.995Z,26.62
2022-07-26T18:13:47.929Z,26.41
2022-07-26T18:16:15.962Z,26.26
2022-07-26T18:18:43.981Z,26.10
2022-07-26T18:21:12.053Z,25.94
2022-07-26T18:23:54.619Z,26.00
2022-07-26T18:26:29.291Z,26.44
2022-07-26T18:28:57.336Z,26.92
2022-07-26T18:31:25.359Z,27.42
2022-07-26T18:33:53.400Z,28.42
2022-07-26T18:36:21.321Z,28.88
2022-07-26T18:38:49.290Z,28.69
2022-07-26T18:41:17.739Z,28.05
2022-07-26T18:43:47.045Z,27.50
2022-07-26T18:46:15.127Z,26.89
2022-07-26T18:48:43.325Z,26.34
2022-07-26T18:51:11.562Z,25.83
2022-07-26T18:53:39.469Z,25.33
2022-07-26T18:56:09.113Z,25.03
2022-07-26T18:58:37.432Z,24.78
2022-07-26T19:01:08.262Z,24.59
2022-07-26T19:03:36.231Z,24.46
2022-07-26T19:06:04.371Z,24.30
2022-07-26T19:08:32.413Z,24.18
2022-07-26T19:11:00.362Z,24.11
2022-07-26T19:13:28.354Z,23.96
2022-07-26T19:15:56.486Z,23.89
2022-07-26T19:18:27.568Z,23.81
2022-07-26T19:20:55.663Z,23.72
2022-07-26T19:23:23.790Z,23.66
2022-07-26T19:25:51.745Z,23.58
2022-07-26T19:28:19.670Z,23.51
2022-07-26T19:30:47.706Z,23.38
2022-07-26T19:33:16.875Z,23.26
2022-07-26T19:35:46.248Z,23.16
2022-07-26T19:38:14.501Z,23.09
2022-07-26T19:40:44.196Z,23.03
2022-07-26T19:43:12.206Z,22.94
2022-07-26T19:45:40.184Z,22.90
2022-07-26T19:48:08.364Z,22.84
2022-07-26T19:50:36.274Z,22.78
2022-07-26T19:53:05.703Z,22.71
2022-07-26T19:55:33.685Z,22.62
2022-07-26T19:58:03.506Z,22.59
2022-07-26T20:00:33.489Z,22.49
2022-07-26T20:03:01.667Z,22.38
2022-07-26T20:05:29.715Z,22.26
2022-07-26T20:07:57.843Z,22.17
2022-07-26T20:10:31.822Z,22.08
2022-07-26T20:13:00.343Z,22.01
2022-07-26T20:15:28.320Z,21.96
2022-07-26T20:17:56.254Z,21.91
2022-07-26T20:20:24.270Z,21.87
2022-07-26T20:22:52.207Z,21.83
2022-07-26T20:25:21.826Z,21.77
2022-07-26T20:27:51.541Z,21.72
2022-07-26T20:30:19.548Z,21.68
2022-07-26T20:32:47.571Z,21.63
2022-07-26T20:35:15.540Z,21.53
2022-07-26T20:37:44.059Z,21.50
2022-07-26T20:40:12.911Z,21.44
2022-07-26T20:42:44.399Z,21.11
2022-07-26T20:45:14.397Z,21.34
2022-07-26T20:47:43.060Z,21.33
2022-07-26T20:50:11.549Z,21.29
2022-07-26T20:52:39.501Z,21.24
2022-07-26T20:55:08.501Z,21.21
2022-07-26T20:57:37.501Z,21.17
2022-07-26T21:00:06.522Z,21.11
2022-07-26T21:02:35.986Z,21.09
2022-07-26T21:05:04.014Z,21.09
2022-07-26T21:07:57.322Z,21.00
2022-07-26T21:10:20.333Z,20.96
2022-07-26T21:12:49.781Z,20.91
2022-07-26T21:15:17.730Z,20.87
2022-07-26T21:17:47.156Z,20.82
2022-07-26T21:20:15.183Z,20.75
2022-07-26T21:22:43.133Z,20.69
2022-07-26T21:25:11.440Z,20.61
2022-07-26T21:27:39.395Z,20.57
2022-07-26T21:30:11.246Z,20.51
2022-07-26T21:32:39.161Z,20.44
2022-07-26T21:35:09.225Z,20.39
2022-07-26T21:37:37.145Z,20.36
2022-07-26T21:40:05.832Z,20.35
2022-07-26T21:42:35.141Z,20.35
2022-07-26T21:45:03.077Z,20.33
2022-07-26T21:47:31.013Z,20.35
2022-07-26T21:50:00.264Z,20.38
2022-07-26T21:52:29.653Z,20.40
2022-07-26T21:54:57.659Z,20.38
2022-07-26T21:57:25.627Z,20.35
2022-07-26T21:59:53.575Z,20.33
2022-07-26T22:02:21.875Z,20.32
2022-07-26T22:04:49.960Z,20.30
2022-07-26T22:07:17.996Z,20.25
2022-07-26T22:09:47.259Z,20.22
2022-07-26T22:12:15.248Z,20.19
2022-07-26T22:14:43.132Z,20.16
2022-07-26T22:17:11.097Z,20.12
2022-07-26T22:19:39.152Z,20.14
2022-07-26T22:22:07.073Z,20.14
2022-07-26T22:24:35.051Z,20.12
2022-07-26T22:27:04.528Z,20.06
2022-07-26T22:29:37.911Z,19.99
2022-07-26T22:32:08.318Z,19.98
2022-07-26T22:34:36.409Z,19.95
2022-07-26T22:37:04.357Z,19.98
2022-07-26T22:39:32.289Z,19.96
2022-07-26T22:42:14.817Z,19.95
2022-07-26T22:44:44.970Z,19.93
2022-07-26T22:47:12.919Z,19.90
2022-07-26T22:49:40.920Z,19.87
2022-07-26T22:52:08.914Z,19.85
2022-07-26T22:54:36.825Z,19.84
2022-07-26T22:57:04.898Z,19.80
2022-07-26T22:59:32.865Z,19.77
2022-07-26T23:02:02.263Z,19.77
2022-07-26T23:04:30.250Z,19.77
2022-07-26T23:06:59.063Z,19.74
2022-07-26T23:09:27.933Z,19.71
2022-07-26T23:11:55.883Z,19.70
2022-07-26T23:14:23.849Z,19.42
2022-07-26T23:16:51.861Z,19.66
2022-07-26T23:19:21.200Z,19.64
2022-07-26T23:21:49.110Z,19.56
2022-07-26T23:24:17.050Z,19.49
2022-07-26T23:26:45.020Z,19.43
2022-07-26T23:29:13.311Z,19.36
2022-07-26T23:31:42.218Z,19.30
2022-07-26T23:34:10.213Z,19.23
2022-07-26T23:36:39.527Z,19.19
2022-07-26T23:39:07.496Z,19.14
2022-07-26T23:41:35.411Z,19.11
2022-07-26T23:44:03.343Z,19.06
2022-07-26T23:46:31.294Z,19.04
2022-07-26T23:49:00.150Z,19.02
2022-07-26T23:51:28.169Z,18.97
2022-07-26T23:53:57.497Z,18.93
2022-07-26T23:56:25.402Z,18.86
2022-07-26T23:58:53.574Z,18.79
